sensor_id;sensor_type;location;lat;lon;timestamp;temperature;humidity
16867;DHT22;8550;52.596;13.320;2023-12-29T00:02:46;9.00;99.90
16867;DHT22;8550;52.596;13.320;2023-12-29T00:07:50;9.10;99.90
16867;DHT22;8550;52.596;13.320;2023-12-29T00:12:52;9.00;99.90
16867;DHT22;8550;52.596;13.320;2023-12-29T00:17:53;9.10;99.90
16867;DHT22;8550;52.596;13.320;2023-12-29T00:22:57;9.10;99.90
16867;DHT22;8550;52.596;13.320;2023-12-29T00:27:59;9.20;99.90
16867;DHT22;8550;52.596;13.320;2023-12-29T00:33:01;9.20;99.90
16867;DHT22;8550;52.596;13.320;2023-12-29T00:38:05;9.20;99.90
16867;DHT22;8550;52.596;13.320;2023-12-29T00:43:07;9.20;99.90
16867;DHT22;8550;52.596;13.320;2023-12-29T00:48:09;9.20;99.90
16867;DHT22;8550;52.596;13.320;2023-12-29T00:53:12;9.00;99.90
16867;DHT22;8550;52.596;13.320;2023-12-29T00:58:14;9.10;99.90
16867;DHT22;8550;52.596;13.320;2023-12-29T01:03:16;9.20;99.90
16867;DHT22;8550;52.596;13.320;2023-12-29T01:08:19;9.30;99.90
16867;DHT22;8550;52.596;13.320;2023-12-29T01:13:21;9.20;99.90
16867;DHT22;8550;52.596;13.320;2023-12-29T01:18:23;9.20;99.90
16867;DHT22;8550;52.596;13.320;2023-12-29T01:23:27;9.30;99.90
16867;DHT22;8550;52.596;13.320;2023-12-29T01:28:29;9.30;99.90
16867;DHT22;8550;52.596;13.320;2023-12-29T01:33:31;9.20;99.90
16867;DHT22;8550;52.596;13.320;2023-12-29T01:38:34;9.30;99.90
16867;DHT22;8550;52.596;13.320;2023-12-29T01:43:36;9.30;99.90
16867;DHT22;8550;52.596;13.320;2023-12-29T01:48:38;9.40;99.90
16867;DHT22;8550;52.596;13.320;2023-12-29T01:53:41;9.40;99.90
16867;DHT22;8550;52.596;13.320;2023-12-29T01:58:43;9.30;99.90
16867;DHT22;8550;52.596;13.320;2023-12-29T02:03:46;9.30;99.90
16867;DHT22;8550;52.596;13.320;2023-12-29T02:08:51;9.20;99.90
16867;DHT22;8550;52.596;13.320;2023-12-29T02:13:52;9.30;99.90
16867;DHT22;8550;52.596;13.320;2023-12-29T02:18:56;9.30;99.90
16867;DHT22;8550;52.596;13.320;2023-12-29T02:24:00;9.30;99.90
16867;DHT22;8550;52.596;13.320;2023-12-29T02:29:07;9.30;99.90
16867;DHT22;8550;52.596;13.320;2023-12-29T02:34:12;9.20;99.90
16867;DHT22;8550;52.596;13.320;2023-12-29T02:39:15;9.20;99.90
16867;DHT22;8550;52.596;13.320;2023-12-29T02:44:19;9.30;99.90
16867;DHT22;8550;52.596;13.320;2023-12-29T02:49:21;9.40;99.90
16867;DHT22;8550;52.596;13.320;2023-12-29T02:54:23;9.50;99.90
16867;DHT22;8550;52.596;13.320;2023-12-29T02:59:26;9.50;99.90
16867;DHT22;8550;52.596;13.320;2023-12-29T03:04:28;9.50;99.90
16867;DHT22;8550;52.596;13.320;2023-12-29T03:09:29;9.40;99.90
16867;DHT22;8550;52.596;13.320;2023-12-29T03:14:33;9.40;99.90
16867;DHT22;8550;52.596;13.320;2023-12-29T03:19:35;9.40;99.90
16867;DHT22;8550;52.596;13.320;2023-12-29T03:24:37;9.40;99.90
16867;DHT22;8550;52.596;13.320;2023-12-29T03:29:40;9.40;99.90
16867;DHT22;8550;52.596;13.320;2023-12-29T03:34:42;9.40;99.90
16867;DHT22;8550;52.596;13.320;2023-12-29T03:39:44;9.30;99.90
16867;DHT22;8550;52.596;13.320;2023-12-29T03:44:48;9.50;99.90
16867;DHT22;8550;52.596;13.320;2023-12-29T03:49:50;9.40;99.90
16867;DHT22;8550;52.596;13.320;2023-12-29T03:54:52;9.50;99.90
16867;DHT22;8550;52.596;13.320;2023-12-29T03:59:55;9.50;99.90
16867;DHT22;8550;52.596;13.320;2023-12-29T04:04:57;9.50;99.90
16867;DHT22;8550;52.596;13.320;2023-12-29T04:09:59;9.50;99.90
16867;DHT22;8550;52.596;13.320;2023-12-29T04:15:02;9.50;99.90
16867;DHT22;8550;52.596;13.320;2023-12-29T04:20:06;9.50;99.90
16867;DHT22;8550;52.596;13.320;2023-12-29T04:25:08;9.50;99.90
16867;DHT22;8550;52.596;13.320;2023-12-29T04:30:12;9.50;99.90
16867;DHT22;8550;52.596;13.320;2023-12-29T04:35:13;9.50;99.90
16867;DHT22;8550;52.596;13.320;2023-12-29T04:40:15;9.60;99.90
16867;DHT22;8550;52.596;13.320;2023-12-29T04:45:19;9.50;99.90
16867;DHT22;8550;52.596;13.320;2023-12-29T04:50:21;9.40;99.90
16867;DHT22;8550;52.596;13.320;2023-12-29T04:55:23;9.30;99.90
16867;DHT22;8550;52.596;13.320;2023-12-29T05:00:26;9.30;99.90
16867;DHT22;8550;52.596;13.320;2023-12-29T05:05:28;9.30;99.90
16867;DHT22;8550;52.596;13.320;2023-12-29T05:10:30;9.30;99.90
16867;DHT22;8550;52.596;13.320;2023-12-29T05:15:36;9.30;99.90
16867;DHT22;8550;52.596;13.320;2023-12-29T05:20:38;9.40;99.90
16867;DHT22;8550;52.596;13.320;2023-12-29T05:25:40;9.40;99.90
16867;DHT22;8550;52.596;13.320;2023-12-29T05:30:43;9.50;99.90
16867;DHT22;8550;52.596;13.320;2023-12-29T05:35:45;9.50;99.90
16867;DHT22;8550;52.596;13.320;2023-12-29T05:40:47;9.60;99.90
16867;DHT22;8550;52.596;13.320;2023-12-29T05:45:51;9.70;99.90
16867;DHT22;8550;52.596;13.320;2023-12-29T05:50:53;9.70;99.90
16867;DHT22;8550;52.596;13.320;2023-12-29T05:55:55;9.70;99.90
16867;DHT22;8550;52.596;13.320;2023-12-29T06:00:58;9.80;99.90
16867;DHT22;8550;52.596;13.320;2023-12-29T06:06:01;9.80;99.90
16867;DHT22;8550;52.596;13.320;2023-12-29T06:11:03;9.80;99.90
16867;DHT22;8550;52.596;13.320;2023-12-29T06:16:07;9.80;99.90
16867;DHT22;8550;52.596;13.320;2023-12-29T06:21:09;9.80;99.90
16867;DHT22;8550;52.596;13.320;2023-12-29T06:26:14;9.70;99.90
16867;DHT22;8550;52.596;13.320;2023-12-29T06:31:19;9.90;99.90
16867;DHT22;8550;52.596;13.320;2023-12-29T06:36:20;9.90;99.90
16867;DHT22;8550;52.596;13.320;2023-12-29T06:41:23;10.00;99.90
16867;DHT22;8550;52.596;13.320;2023-12-29T06:46:27;10.00;99.90
16867;DHT22;8550;52.596;13.320;2023-12-29T06:51:29;10.00;99.90
16867;DHT22;8550;52.596;13.320;2023-12-29T06:56:31;9.90;99.90
16867;DHT22;8550;52.596;13.320;2023-12-29T07:01:36;9.90;99.90
16867;DHT22;8550;52.596;13.320;2023-12-29T07:06:40;9.90;99.90
16867;DHT22;8550;52.596;13.320;2023-12-29T07:11:42;9.90;99.90
16867;DHT22;8550;52.596;13.320;2023-12-29T07:16:50;9.80;99.90
16867;DHT22;8550;52.596;13.320;2023-12-29T07:21:52;9.90;99.90
16867;DHT22;8550;52.596;13.320;2023-12-29T07:26:54;10.00;99.90
16867;DHT22;8550;52.596;13.320;2023-12-29T07:31:57;10.10;99.90
16867;DHT22;8550;52.596;13.320;2023-12-29T07:36:59;10.20;99.90
16867;DHT22;8550;52.596;13.320;2023-12-29T07:42:02;10.20;99.90
16867;DHT22;8550;52.596;13.320;2023-12-29T07:47:07;10.20;99.90
16867;DHT22;8550;52.596;13.320;2023-12-29T07:52:11;10.20;99.90
16867;DHT22;8550;52.596;13.320;2023-12-29T07:57:13;10.20;99.90
16867;DHT22;8550;52.596;13.320;2023-12-29T08:02:16;10.20;99.90
16867;DHT22;8550;52.596;13.320;2023-12-29T08:07:19;10.20;99.90
16867;DHT22;8550;52.596;13.320;2023-12-29T08:12:21;10.30;99.90
16867;DHT22;8550;52.596;13.320;2023-12-29T08:17:26;10.30;99.90
16867;DHT22;8550;52.596;13.320;2023-12-29T08:22:30;10.40;99.90
16867;DHT22;8550;52.596;13.320;2023-12-29T08:27:32;10.50;99.90
16867;DHT22;8550;52.596;13.320;2023-12-29T08:32:36;10.60;99.90
16867;DHT22;8550;52.596;13.320;2023-12-29T08:37:37;10.60;99.90
16867;DHT22;8550;52.596;13.320;2023-12-29T08:42:39;10.60;99.90
16867;DHT22;8550;52.596;13.320;2023-12-29T08:47:43;10.60;99.90
16867;DHT22;8550;52.596;13.320;2023-12-29T08:52:44;10.80;99.90
16867;DHT22;8550;52.596;13.320;2023-12-29T08:57:46;10.80;99.90
16867;DHT22;8550;52.596;13.320;2023-12-29T09:02:49;10.80;99.90
16867;DHT22;8550;52.596;13.320;2023-12-29T09:07:51;10.90;99.90
16867;DHT22;8550;52.596;13.320;2023-12-29T09:12:53;10.90;99.90
16867;DHT22;8550;52.596;13.320;2023-12-29T09:17:56;10.90;99.90
16867;DHT22;8550;52.596;13.320;2023-12-29T09:22:58;11.00;99.90
16867;DHT22;8550;52.596;13.320;2023-12-29T09:28:00;11.00;99.90
16867;DHT22;8550;52.596;13.320;2023-12-29T09:33:04;11.10;99.90
16867;DHT22;8550;52.596;13.320;2023-12-29T09:38:06;11.00;99.90
16867;DHT22;8550;52.596;13.320;2023-12-29T09:43:10;11.10;99.90
16867;DHT22;8550;52.596;13.320;2023-12-29T09:48:16;11.10;99.90
16867;DHT22;8550;52.596;13.320;2023-12-29T09:53:20;11.20;99.90
16867;DHT22;8550;52.596;13.320;2023-12-29T09:58:23;11.20;99.90
16867;DHT22;8550;52.596;13.320;2023-12-29T10:03:27;11.20;99.90
16867;DHT22;8550;52.596;13.320;2023-12-29T10:08:29;11.30;99.90
16867;DHT22;8550;52.596;13.320;2023-12-29T10:13:34;11.40;99.90
16867;DHT22;8550;52.596;13.320;2023-12-29T10:18:44;11.40;99.90
16867;DHT22;8550;52.596;13.320;2023-12-29T10:23:52;11.50;99.90
16867;DHT22;8550;52.596;13.320;2023-12-29T10:28:56;11.60;99.90
16867;DHT22;8550;52.596;13.320;2023-12-29T10:34:18;11.60;99.90
16867;DHT22;8550;52.596;13.320;2023-12-29T10:39:20;11.70;99.90
16867;DHT22;8550;52.596;13.320;2023-12-29T10:44:22;11.80;99.90
16867;DHT22;8550;52.596;13.320;2023-12-29T10:49:25;11.70;99.90
16867;DHT22;8550;52.596;13.320;2023-12-29T10:54:27;11.70;99.90
16867;DHT22;8550;52.596;13.320;2023-12-29T10:59:29;11.70;99.90
16867;DHT22;8550;52.596;13.320;2023-12-29T11:04:32;11.80;99.90
16867;DHT22;8550;52.596;13.320;2023-12-29T11:09:34;11.70;99.90
16867;DHT22;8550;52.596;13.320;2023-12-29T11:14:37;11.70;99.90
16867;DHT22;8550;52.596;13.320;2023-12-29T11:19:46;11.70;99.90
16867;DHT22;8550;52.596;13.320;2023-12-29T11:24:48;11.70;99.90
16867;DHT22;8550;52.596;13.320;2023-12-29T11:29:50;11.70;99.90
16867;DHT22;8550;52.596;13.320;2023-12-29T11:35:06;11.70;99.90
16867;DHT22;8550;52.596;13.320;2023-12-29T11:40:19;11.70;99.90
16867;DHT22;8550;52.596;13.320;2023-12-29T11:45:27;11.70;99.90
16867;DHT22;8550;52.596;13.320;2023-12-29T11:50:32;11.80;99.90
16867;DHT22;8550;52.596;13.320;2023-12-29T11:55:36;11.90;99.90
16867;DHT22;8550;52.596;13.320;2023-12-29T12:00:42;11.80;99.90
16867;DHT22;8550;52.596;13.320;2023-12-29T12:05:47;11.80;99.90
16867;DHT22;8550;52.596;13.320;2023-12-29T12:10:49;11.90;99.90
16867;DHT22;8550;52.596;13.320;2023-12-29T12:15:51;11.90;99.90
16867;DHT22;8550;52.596;13.320;2023-12-29T12:20:54;11.80;99.90
16867;DHT22;8550;52.596;13.320;2023-12-29T12:25:57;11.80;99.90
16867;DHT22;8550;52.596;13.320;2023-12-29T12:31:06;11.80;99.90
16867;DHT22;8550;52.596;13.320;2023-12-29T12:36:10;11.60;99.90
16867;DHT22;8550;52.596;13.320;2023-12-29T12:41:12;11.40;99.90
16867;DHT22;8550;52.596;13.320;2023-12-29T12:46:15;10.90;99.90
16867;DHT22;8550;52.596;13.320;2023-12-29T12:51:19;10.50;99.90
16867;DHT22;8550;52.596;13.320;2023-12-29T12:56:21;10.20;99.90
16867;DHT22;8550;52.596;13.320;2023-12-29T13:01:23;10.10;99.90
16867;DHT22;8550;52.596;13.320;2023-12-29T13:06:27;10.00;99.90
16867;DHT22;8550;52.596;13.320;2023-12-29T13:11:29;9.90;99.90
16867;DHT22;8550;52.596;13.320;2023-12-29T13:16:32;10.00;99.90
16867;DHT22;8550;52.596;13.320;2023-12-29T13:21:35;10.10;99.90
16867;DHT22;8550;52.596;13.320;2023-12-29T13:26:37;10.00;99.90
16867;DHT22;8550;52.596;13.320;2023-12-29T13:31:40;10.00;99.90
16867;DHT22;8550;52.596;13.320;2023-12-29T13:36:49;10.10;99.90
16867;DHT22;8550;52.596;13.320;2023-12-29T13:41:52;10.20;99.90
16867;DHT22;8550;52.596;13.320;2023-12-29T13:46:55;10.30;99.90
16867;DHT22;8550;52.596;13.320;2023-12-29T13:52:01;10.40;99.90
16867;DHT22;8550;52.596;13.320;2023-12-29T13:57:03;10.50;99.90
16867;DHT22;8550;52.596;13.320;2023-12-29T14:02:19;10.50;99.90
16867;DHT22;8550;52.596;13.320;2023-12-29T14:07:25;10.70;99.90
16867;DHT22;8550;52.596;13.320;2023-12-29T14:12:27;10.70;99.90
16867;DHT22;8550;52.596;13.320;2023-12-29T14:17:29;10.80;99.90
16867;DHT22;8550;52.596;13.320;2023-12-29T14:22:32;10.90;99.90
16867;DHT22;8550;52.596;13.320;2023-12-29T14:27:34;11.00;99.90
16867;DHT22;8550;52.596;13.320;2023-12-29T14:32:36;10.90;99.90
16867;DHT22;8550;52.596;13.320;2023-12-29T14:37:40;10.90;99.90
16867;DHT22;8550;52.596;13.320;2023-12-29T14:42:42;11.00;99.90
16867;DHT22;8550;52.596;13.320;2023-12-29T14:47:44;11.10;99.90
16867;DHT22;8550;52.596;13.320;2023-12-29T14:52:48;11.20;99.90
16867;DHT22;8550;52.596;13.320;2023-12-29T14:57:50;11.20;99.90
16867;DHT22;8550;52.596;13.320;2023-12-29T15:02:52;11.00;99.90
16867;DHT22;8550;52.596;13.320;2023-12-29T15:07:56;11.00;99.90
16867;DHT22;8550;52.596;13.320;2023-12-29T15:12:58;10.90;99.90
16867;DHT22;8550;52.596;13.320;2023-12-29T15:18:00;10.90;99.90
16867;DHT22;8550;52.596;13.320;2023-12-29T15:23:03;11.00;99.90
16867;DHT22;8550;52.596;13.320;2023-12-29T15:28:08;11.10;99.90
16867;DHT22;8550;52.596;13.320;2023-12-29T15:33:24;11.20;99.90
16867;DHT22;8550;52.596;13.320;2023-12-29T15:38:29;11.30;99.90
16867;DHT22;8550;52.596;13.320;2023-12-29T15:43:33;11.10;99.90
16867;DHT22;8550;52.596;13.320;2023-12-29T15:48:35;11.20;99.90
16867;DHT22;8550;52.596;13.320;2023-12-29T15:53:38;11.10;99.90
16867;DHT22;8550;52.596;13.320;2023-12-29T15:58:41;11.10;99.90
16867;DHT22;8550;52.596;13.320;2023-12-29T16:03:42;11.10;99.90
16867;DHT22;8550;52.596;13.320;2023-12-29T16:08:46;11.00;99.90
16867;DHT22;8550;52.596;13.320;2023-12-29T16:13:48;11.00;99.90
16867;DHT22;8550;52.596;13.320;2023-12-29T16:18:50;11.00;99.90
16867;DHT22;8550;52.596;13.320;2023-12-29T16:23:53;11.00;99.90
16867;DHT22;8550;52.596;13.320;2023-12-29T16:28:55;11.00;99.90
16867;DHT22;8550;52.596;13.320;2023-12-29T16:33:57;11.00;99.90
16867;DHT22;8550;52.596;13.320;2023-12-29T16:39:00;11.00;99.90
16867;DHT22;8550;52.596;13.320;2023-12-29T16:44:04;10.90;99.90
16867;DHT22;8550;52.596;13.320;2023-12-29T16:49:07;10.70;99.90
16867;DHT22;8550;52.596;13.320;2023-12-29T16:54:10;10.60;99.90
16867;DHT22;8550;52.596;13.320;2023-12-29T16:59:12;10.60;99.90
16867;DHT22;8550;52.596;13.320;2023-12-29T17:04:14;10.70;99.90
16867;DHT22;8550;52.596;13.320;2023-12-29T17:09:17;10.70;99.90
16867;DHT22;8550;52.596;13.320;2023-12-29T17:14:19;10.70;99.90
16867;DHT22;8550;52.596;13.320;2023-12-29T17:19:21;10.70;99.90
16867;DHT22;8550;52.596;13.320;2023-12-29T17:24:27;10.60;99.90
16867;DHT22;8550;52.596;13.320;2023-12-29T17:29:31;10.60;99.90
16867;DHT22;8550;52.596;13.320;2023-12-29T17:34:33;10.70;99.90
16867;DHT22;8550;52.596;13.320;2023-12-29T17:39:37;10.80;99.90
16867;DHT22;8550;52.596;13.320;2023-12-29T17:44:39;10.80;99.90
16867;DHT22;8550;52.596;13.320;2023-12-29T17:49:42;10.80;99.90
16867;DHT22;8550;52.596;13.320;2023-12-29T17:54:45;10.80;99.90
16867;DHT22;8550;52.596;13.320;2023-12-29T17:59:47;10.80;99.90
16867;DHT22;8550;52.596;13.320;2023-12-29T18:04:49;10.70;99.90
16867;DHT22;8550;52.596;13.320;2023-12-29T18:09:52;10.60;99.90
16867;DHT22;8550;52.596;13.320;2023-12-29T18:14:54;10.60;99.90
16867;DHT22;8550;52.596;13.320;2023-12-29T18:19:56;10.70;99.90
16867;DHT22;8550;52.596;13.320;2023-12-29T18:24:59;10.70;99.90
16867;DHT22;8550;52.596;13.320;2023-12-29T18:30:01;10.70;99.90
16867;DHT22;8550;52.596;13.320;2023-12-29T18:35:04;10.80;99.90
16867;DHT22;8550;52.596;13.320;2023-12-29T18:40:09;10.80;99.90
16867;DHT22;8550;52.596;13.320;2023-12-29T18:45:11;10.80;99.90
16867;DHT22;8550;52.596;13.320;2023-12-29T18:50:13;10.90;99.90
16867;DHT22;8550;52.596;13.320;2023-12-29T18:55:17;10.90;99.90
16867;DHT22;8550;52.596;13.320;2023-12-29T19:00:20;10.90;99.90
16867;DHT22;8550;52.596;13.320;2023-12-29T19:05:22;10.90;99.90
16867;DHT22;8550;52.596;13.320;2023-12-29T19:10:26;11.00;99.90
16867;DHT22;8550;52.596;13.320;2023-12-29T19:15:28;10.90;99.90
16867;DHT22;8550;52.596;13.320;2023-12-29T19:20:30;10.80;99.90
16867;DHT22;8550;52.596;13.320;2023-12-29T19:25:35;10.70;99.90
16867;DHT22;8550;52.596;13.320;2023-12-29T19:30:37;10.70;99.90
16867;DHT22;8550;52.596;13.320;2023-12-29T19:35:39;10.60;99.90
16867;DHT22;8550;52.596;13.320;2023-12-29T19:40:43;10.50;99.90
16867;DHT22;8550;52.596;13.320;2023-12-29T19:45:45;10.30;99.90
16867;DHT22;8550;52.596;13.320;2023-12-29T19:50:47;10.10;99.90
16867;DHT22;8550;52.596;13.320;2023-12-29T19:55:50;10.00;99.90
16867;DHT22;8550;52.596;13.320;2023-12-29T20:00:53;9.80;99.90
16867;DHT22;8550;52.596;13.320;2023-12-29T20:05:55;9.60;99.90
16867;DHT22;8550;52.596;13.320;2023-12-29T20:10:59;9.60;99.90
16867;DHT22;8550;52.596;13.320;2023-12-29T20:16:01;9.50;99.90
16867;DHT22;8550;52.596;13.320;2023-12-29T20:21:03;9.40;99.90
16867;DHT22;8550;52.596;13.320;2023-12-29T20:26:08;9.30;99.90
16867;DHT22;8550;52.596;13.320;2023-12-29T20:31:21;9.10;99.90
16867;DHT22;8550;52.596;13.320;2023-12-29T20:36:24;9.10;99.90
16867;DHT22;8550;52.596;13.320;2023-12-29T20:41:27;9.10;99.90
16867;DHT22;8550;52.596;13.320;2023-12-29T20:46:29;9.10;99.90
16867;DHT22;8550;52.596;13.320;2023-12-29T20:51:31;9.10;99.90
16867;DHT22;8550;52.596;13.320;2023-12-29T20:56:35;9.00;99.90
16867;DHT22;8550;52.596;13.320;2023-12-29T21:01:39;9.00;99.90
16867;DHT22;8550;52.596;13.320;2023-12-29T21:06:42;8.80;99.90
16867;DHT22;8550;52.596;13.320;2023-12-29T21:11:45;8.80;99.90
16867;DHT22;8550;52.596;13.320;2023-12-29T21:16:47;8.80;99.90
16867;DHT22;8550;52.596;13.320;2023-12-29T21:21:49;8.80;99.90
16867;DHT22;8550;52.596;13.320;2023-12-29T21:26:53;8.80;99.90
16867;DHT22;8550;52.596;13.320;2023-12-29T21:31:56;8.70;99.90
16867;DHT22;8550;52.596;13.320;2023-12-29T21:36:58;8.70;99.90
16867;DHT22;8550;52.596;13.320;2023-12-29T21:42:01;8.80;99.90
16867;DHT22;8550;52.596;13.320;2023-12-29T21:47:03;8.60;99.90
16867;DHT22;8550;52.596;13.320;2023-12-29T21:52:06;8.60;99.90
16867;DHT22;8550;52.596;13.320;2023-12-29T21:57:09;8.50;99.90
16867;DHT22;8550;52.596;13.320;2023-12-29T22:02:12;8.50;99.90
16867;DHT22;8550;52.596;13.320;2023-12-29T22:07:15;8.50;99.90
16867;DHT22;8550;52.596;13.320;2023-12-29T22:12:19;8.60;99.90
16867;DHT22;8550;52.596;13.320;2023-12-29T22:17:21;8.70;99.90
16867;DHT22;8550;52.596;13.320;2023-12-29T22:22:22;8.70;99.90
16867;DHT22;8550;52.596;13.320;2023-12-29T22:27:26;8.80;99.90
16867;DHT22;8550;52.596;13.320;2023-12-29T22:32:28;8.90;99.90
16867;DHT22;8550;52.596;13.320;2023-12-29T22:37:30;9.00;99.90
16867;DHT22;8550;52.596;13.320;2023-12-29T22:42:33;9.00;99.90
16867;DHT22;8550;52.596;13.320;2023-12-29T22:47:35;9.10;99.90
16867;DHT22;8550;52.596;13.320;2023-12-29T22:52:37;9.10;99.90
16867;DHT22;8550;52.596;13.320;2023-12-29T22:57:40;9.10;99.90
16867;DHT22;8550;52.596;13.320;2023-12-29T23:02:42;9.10;99.90
16867;DHT22;8550;52.596;13.320;2023-12-29T23:08:09;8.20;99.90
16867;DHT22;8550;52.596;13.320;2023-12-29T23:13:13;7.50;99.90
16867;DHT22;8550;52.596;13.320;2023-12-29T23:18:16;7.30;99.90
16867;DHT22;8550;52.596;13.320;2023-12-29T23:23:20;7.40;99.90
16867;DHT22;8550;52.596;13.320;2023-12-29T23:28:23;7.50;99.90
16867;DHT22;8550;52.596;13.320;2023-12-29T23:33:25;7.60;99.90
16867;DHT22;8550;52.596;13.320;2023-12-29T23:38:27;7.70;99.90
16867;DHT22;8550;52.596;13.320;2023-12-29T23:43:31;7.90;99.90
16867;DHT22;8550;52.596;13.320;2023-12-29T23:48:33;7.80;99.90
16867;DHT22;8550;52.596;13.320;2023-12-29T23:53:34;7.80;99.90
16867;DHT22;8550;52.596;13.320;2023-12-29T23:58:56;7.80;99.90
